Wetterdaten: Woche 18.04.16 - 24.04.16 (KW16)
Datum Zeit Temp. A. Feuchte A. Luftdruck Regen Wind Richtung Sonnenschein ET UV Solar Taupunkt Windchill Windben Empfang
18.04.2016 00:00 9,0 C 95 % 1014,3 hPa 0,4 l/m 7,0 km/h (2 Bft) W 0,00 h 0,000 mm 0,0 UV-I 0 W/m 8,2 C 8,2 C 11,0 km/h (2 Bft) 97,72 %
18.04.2016 01:00 8,7 C 95 % 1014,9 hPa 0,2 l/m 4,7 km/h (1 Bft) W-SW 0,00 h 0,000 mm 0,0 UV-I 0 W/m 8,0 C 8,6 C 7,1 km/h (2 Bft) 99,40 %
18.04.2016 02:00 8,6 C 95 % 1015,0 hPa 0,4 l/m 4,9 km/h (1 Bft) W-SW 0,00 h 0,000 mm 0,0 UV-I 0 W/m 7,9 C 8,5 C 7,3 km/h (2 Bft) 98,15 %
18.04.2016 03:00 8,3 C 96 % 1015,4 hPa 0,0 l/m 4,1 km/h (1 Bft) W 0,00 h 0,000 mm 0,0 UV-I 0 W/m 7,7 C 8,3 C 5,7 km/h (1 Bft) 99,12 %
18.04.2016 04:00 8,0 C 96 % 1015,5 hPa 0,2 l/m 4,0 km/h (1 Bft) W 0,00 h 0,000 mm 0,0 UV-I 0 W/m 7,4 C 8,0 C 6,0 km/h (2 Bft) 97,63 %
18.04.2016 05:00 7,8 C 96 % 1015,4 hPa 0,2 l/m 4,5 km/h (1 Bft) W 0,00 h 0,000 mm 0,0 UV-I 0 W/m 7,2 C 7,8 C 6,6 km/h (2 Bft) 99,17 %
18.04.2016 06:00 7,7 C 96 % 1015,5 hPa 0,2 l/m 5,1 km/h (1 Bft) W-SW 0,00 h 0,000 mm 0,0 UV-I 12 W/m 7,0 C 7,6 C 7,4 km/h (2 Bft) 97,79 %
18.04.2016 07:00 7,7 C 96 % 1016,3 hPa 1,0 l/m 5,5 km/h (1 Bft) S-SW 0,00 h 0,000 mm 0,0 UV-I 27 W/m 7,1 C 7,6 C 7,8 km/h (2 Bft) 99,21 %
18.04.2016 08:00 7,9 C 96 % 1017,3 hPa 1,4 l/m 5,9 km/h (2 Bft) SW 0,00 h 0,025 mm 0,0 UV-I 55 W/m 7,3 C 7,7 C 8,5 km/h (2 Bft) 98,20 %
18.04.2016 09:00 8,6 C 94 % 1017,6 hPa 0,6 l/m 4,8 km/h (1 Bft) W-SW 0,05 h 0,026 mm 0,9 UV-I 218 W/m 7,7 C 8,5 C 7,1 km/h (2 Bft) 99,24 %
18.04.2016 10:00 9,5 C 89 % 1017,6 hPa 0,0 l/m 3,4 km/h (1 Bft) W-SW 0,22 h 0,101 mm 1,3 UV-I 300 W/m 7,8 C 9,4 C 5,4 km/h (1 Bft) 98,35 %
18.04.2016 11:00 9,5 C 88 % 1017,7 hPa 0,2 l/m 2,0 km/h (1 Bft) W 0,00 h 0,127 mm 1,2 UV-I 205 W/m 7,6 C 9,5 C 3,5 km/h (1 Bft) 99,29 %
18.04.2016 12:00 9,8 C 83 % 1017,6 hPa 0,0 l/m 0,5 km/h (0 Bft) W 0,00 h 0,102 mm 1,2 UV-I 191 W/m 6,9 C 9,8 C 1,5 km/h (1 Bft) 98,52 %
18.04.2016 13:00 10,0 C 85 % 1017,6 hPa 0,0 l/m 1,7 km/h (1 Bft) N-NO 0,00 h 0,102 mm 1,3 UV-I 220 W/m 7,7 C 10,0 C 3,4 km/h (1 Bft) 98,74 %
18.04.2016 14:00 10,1 C 87 % 1017,8 hPa 0,0 l/m 3,7 km/h (1 Bft) N-NO 0,00 h 0,101 mm 0,9 UV-I 166 W/m 8,0 C 10,0 C 6,1 km/h (2 Bft) 98,69 %
18.04.2016 15:00 9,7 C 90 % 1017,6 hPa 0,4 l/m 4,6 km/h (1 Bft) N-NO 0,00 h 0,076 mm 0,7 UV-I 136 W/m 8,1 C 9,7 C 7,1 km/h (2 Bft) 98,92 %
18.04.2016 16:00 9,7 C 89 % 1017,3 hPa 0,4 l/m 6,9 km/h (2 Bft) NO 0,23 h 0,077 mm 0,8 UV-I 200 W/m 8,0 C 8,9 C 9,5 km/h (2 Bft) 98,46 %
18.04.2016 17:00 10,0 C 87 % 1017,5 hPa 0,2 l/m 6,1 km/h (2 Bft) O-NO 0,03 h 0,101 mm 0,6 UV-I 125 W/m 7,9 C 9,5 C 8,7 km/h (2 Bft) 98,69 %
18.04.2016 18:00 9,8 C 88 % 1017,4 hPa 0,0 l/m 4,6 km/h (1 Bft) NO 0,00 h 0,076 mm 0,0 UV-I 55 W/m 8,0 C 9,8 C 6,4 km/h (2 Bft) 98,47 %
18.04.2016 19:00 9,5 C 91 % 1017,8 hPa 0,0 l/m 1,3 km/h (1 Bft) NO 0,00 h 0,026 mm 0,0 UV-I 16 W/m 8,1 C 9,5 C 2,4 km/h (1 Bft) 98,25 %
18.04.2016 20:00 8,9 C 94 % 1018,5 hPa 0,0 l/m 0,7 km/h (0 Bft) NO 0,00 h 0,000 mm 0,0 UV-I 0 W/m 8,0 C 8,9 C 1,1 km/h (1 Bft) 98,57 %
18.04.2016 21:00 8,7 C 95 % 1019,4 hPa 0,0 l/m 0,2 km/h (0 Bft) NO 0,00 h 0,000 mm 0,0 UV-I 0 W/m 8,0 C 8,7 C 0,5 km/h (0 Bft) 98,81 %
18.04.2016 22:00 8,7 C 96 % 1019,9 hPa 0,0 l/m 0,6 km/h (0 Bft) NO 0,00 h 0,000 mm 0,0 UV-I 0 W/m 8,1 C 8,7 C 1,4 km/h (1 Bft) 99,31 %
18.04.2016 23:00 8,6 C 96 % 1020,6 hPa 0,2 l/m 0,9 km/h (0 Bft) N-NO 0,00 h 0,000 mm 0,0 UV-I 0 W/m 8,0 C 8,6 C 2,0 km/h (1 Bft) 98,88 %
19.04.2016 00:00 8,4 C 95 % 1021,0 hPa 0,2 l/m 1,9 km/h (1 Bft) SW 0,00 h 0,000 mm 0,0 UV-I 0 W/m 7,8 C 8,4 C 3,2 km/h (1 Bft) 98,45 %
19.04.2016 01:00 8,4 C 96 % 1021,1 hPa 0,0 l/m 3,7 km/h (1 Bft) S 0,00 h 0,000 mm 0,0 UV-I 0 W/m 7,8 C 8,4 C 5,8 km/h (2 Bft) 98,16 %
19.04.2016 02:00 8,3 C 96 % 1021,2 hPa 0,0 l/m 4,6 km/h (1 Bft) S 0,00 h 0,000 mm 0,0 UV-I 0 W/m 7,7 C 8,3 C 6,9 km/h (2 Bft) 99,14 %
19.04.2016 03:00 7,9 C 96 % 1021,2 hPa 0,0 l/m 5,2 km/h (1 Bft) S-SW 0,00 h 0,000 mm 0,0 UV-I 0 W/m 7,3 C 7,9 C 7,5 km/h (2 Bft) 98,21 %
19.04.2016 04:00 7,7 C 95 % 1021,3 hPa 0,0 l/m 5,1 km/h (1 Bft) S-SW 0,00 h 0,000 mm 0,0 UV-I 0 W/m 6,9 C 7,6 C 7,1 km/h (2 Bft) 98,82 %
19.04.2016 05:00 7,6 C 95 % 1021,7 hPa 0,0 l/m 5,1 km/h (1 Bft) W-SW 0,00 h 0,000 mm 0,0 UV-I 0 W/m 6,8 C 7,6 C 7,1 km/h (2 Bft) 98,74 %
19.04.2016 06:00 7,6 C 95 % 1022,1 hPa 0,0 l/m 4,5 km/h (1 Bft) W-SW 0,00 h 0,000 mm 0,0 UV-I 19 W/m 6,8 C 7,6 C 6,1 km/h (2 Bft) 98,89 %
19.04.2016 07:00 7,9 C 95 % 1022,7 hPa 0,0 l/m 8,1 km/h (2 Bft) W-SW 0,00 h 0,000 mm 0,0 UV-I 57 W/m 7,1 C 6,6 C 11,6 km/h (2 Bft) 98,43 %
19.04.2016 08:00 8,4 C 89 % 1023,4 hPa 0,0 l/m 10,5 km/h (2 Bft) W-SW 0,00 h 0,025 mm 0,6 UV-I 157 W/m 6,7 C 5,7 C 14,9 km/h (3 Bft) 98,84 %
19.04.2016 09:00 9,6 C 81 % 1023,7 hPa 0,0 l/m 9,2 km/h (2 Bft) W-SW 0,78 h 0,077 mm 1,3 UV-I 400 W/m 6,6 C 7,7 C 13,5 km/h (3 Bft) 98,37 %
19.04.2016 10:00 11,3 C 65 % 1023,6 hPa 0,0 l/m 8,1 km/h (2 Bft) W 1,00 h 0,203 mm 2,6 UV-I 649 W/m 4,9 C 9,9 C 12,9 km/h (3 Bft) 99,14 %
19.04.2016 11:00 12,1 C 59 % 1023,5 hPa 0,0 l/m 10,7 km/h (2 Bft) W 0,78 h 0,330 mm 3,3 UV-I 706 W/m 4,3 C 9,8 C 17,4 km/h (3 Bft) 98,41 %
19.04.2016 12:00 12,3 C 57 % 1023,3 hPa 0,0 l/m 11,1 km/h (2 Bft) W 0,48 h 0,381 mm 2,9 UV-I 536 W/m 4,0 C 9,7 C 17,6 km/h (3 Bft) 97,66 %
19.04.2016 13:00 12,2 C 57 % 1023,1 hPa 0,0 l/m 12,7 km/h (3 Bft) W 0,42 h 0,305 mm 3,1 UV-I 542 W/m 4,0 C 8,9 C 19,4 km/h (3 Bft) 99,18 %
19.04.2016 14:00 12,4 C 55 % 1022,9 hPa 0,0 l/m 11,0 km/h (2 Bft) W 0,08 h 0,305 mm 1,9 UV-I 297 W/m 3,7 C 9,9 C 17,8 km/h (3 Bft) 97,56 %
19.04.2016 15:00 12,6 C 54 % 1022,5 hPa 0,0 l/m 12,1 km/h (2 Bft) W 0,17 h 0,228 mm 1,7 UV-I 315 W/m 3,6 C 9,6 C 17,9 km/h (3 Bft) 99,29 %
19.04.2016 16:00 12,4 C 56 % 1022,3 hPa 0,0 l/m 8,8 km/h (2 Bft) W 0,10 h 0,229 mm 0,9 UV-I 208 W/m 3,8 C 10,7 C 14,2 km/h (3 Bft) 97,86 %
19.04.2016 17:00 12,1 C 56 % 1022,2 hPa 0,0 l/m 9,0 km/h (2 Bft) W 0,05 h 0,152 mm 0,6 UV-I 143 W/m 3,6 C 10,4 C 14,2 km/h (3 Bft) 99,44 %
19.04.2016 18:00 11,6 C 59 % 1022,4 hPa 0,0 l/m 6,0 km/h (2 Bft) W 0,00 h 0,127 mm 0,0 UV-I 64 W/m 3,8 C 11,2 C 11,0 km/h (2 Bft) 98,29 %
19.04.2016 19:00 10,9 C 62 % 1022,8 hPa 0,0 l/m 5,2 km/h (1 Bft) W-NW 0,00 h 0,076 mm 0,0 UV-I 15 W/m 3,9 C 10,6 C 9,4 km/h (2 Bft) 99,08 %
19.04.2016 20:00 10,2 C 64 % 1023,3 hPa 0,0 l/m 3,9 km/h (1 Bft) W 0,00 h 0,026 mm 0,0 UV-I 0 W/m 3,8 C 10,2 C 6,7 km/h (2 Bft) 97,76 %
19.04.2016 21:00 9,7 C 65 % 1023,9 hPa 0,0 l/m 4,3 km/h (1 Bft) W 0,00 h 0,025 mm 0,0 UV-I 0 W/m 3,5 C 9,7 C 7,2 km/h (2 Bft) 99,40 %
19.04.2016 22:00 9,2 C 69 % 1024,2 hPa 0,0 l/m 6,0 km/h (2 Bft) SW 0,00 h 0,026 mm 0,0 UV-I 0 W/m 3,9 C 9,1 C 9,8 km/h (2 Bft) 99,35 %
19.04.2016 23:00 8,7 C 73 % 1024,5 hPa 0,0 l/m 7,5 km/h (2 Bft) W-SW 0,00 h 0,025 mm 0,0 UV-I 0 W/m 4,2 C 7,9 C 10,5 km/h (2 Bft) 99,15 %
20.04.2016 00:00 8,6 C 72 % 1024,6 hPa 0,0 l/m 9,5 km/h (2 Bft) SW 0,00 h 0,000 mm 0,0 UV-I 0 W/m 3,9 C 6,4 C 13,3 km/h (3 Bft) 97,71 %
20.04.2016 01:00 8,3 C 75 % 1024,8 hPa 0,0 l/m 10,3 km/h (2 Bft) SW 0,00 h 0,025 mm 0,0 UV-I 0 W/m 4,1 C 5,6 C 14,4 km/h (3 Bft) 98,71 %
20.04.2016 02:00 7,9 C 78 % 1024,9 hPa 0,0 l/m 11,6 km/h (2 Bft) SW 0,00 h 0,026 mm 0,0 UV-I 0 W/m 4,3 C 4,3 C 15,8 km/h (3 Bft) 97,73 %
20.04.2016 03:00 7,7 C 78 % 1025,0 hPa 0,0 l/m 7,4 km/h (2 Bft) SW 0,00 h 0,025 mm 0,0 UV-I 0 W/m 4,1 C 6,8 C 10,3 km/h (2 Bft) 99,01 %
20.04.2016 04:00 7,4 C 80 % 1025,0 hPa 0,0 l/m 5,3 km/h (1 Bft) SW 0,00 h 0,026 mm 0,0 UV-I 0 W/m 4,1 C 7,4 C 7,6 km/h (2 Bft) 97,95 %
20.04.2016 05:00 7,3 C 81 % 1025,2 hPa 0,0 l/m 6,3 km/h (2 Bft) SW 0,00 h 0,025 mm 0,0 UV-I 0 W/m 4,3 C 6,9 C 8,7 km/h (2 Bft) 99,29 %
20.04.2016 06:00 7,2 C 82 % 1025,7 hPa 0,0 l/m 4,1 km/h (1 Bft) SW 0,00 h 0,025 mm 0,0 UV-I 16 W/m 4,3 C 7,2 C 5,6 km/h (1 Bft) 98,60 %
20.04.2016 07:00 7,6 C 81 % 1026,4 hPa 0,0 l/m 3,3 km/h (1 Bft) SW 0,00 h 0,026 mm 0,0 UV-I 85 W/m 4,4 C 7,6 C 5,0 km/h (1 Bft) 98,88 %
20.04.2016 08:00 8,6 C 77 % 1026,8 hPa 0,0 l/m 2,1 km/h (1 Bft) W 0,22 h 0,051 mm 0,7 UV-I 192 W/m 4,8 C 8,6 C 4,1 km/h (1 Bft) 98,47 %
20.04.2016 09:00 9,9 C 71 % 1027,0 hPa 0,0 l/m 2,7 km/h (1 Bft) NW 0,38 h 0,101 mm 1,2 UV-I 323 W/m 4,9 C 9,9 C 4,7 km/h (1 Bft) 99,12 %
20.04.2016 10:00 11,2 C 66 % 1027,2 hPa 0,0 l/m 4,5 km/h (1 Bft) W-NW 0,68 h 0,178 mm 2,1 UV-I 511 W/m 5,0 C 10,7 C 7,4 km/h (2 Bft) 98,37 %
20.04.2016 11:00 12,3 C 59 % 1027,4 hPa 0,0 l/m 7,0 km/h (2 Bft) W-SW 0,63 h 0,254 mm 2,8 UV-I 601 W/m 4,5 C 11,3 C 11,8 km/h (2 Bft) 98,56 %
20.04.2016 12:00 13,1 C 52 % 1027,4 hPa 0,0 l/m 9,5 km/h (2 Bft) W-SW 0,83 h 0,305 mm 3,8 UV-I 756 W/m 3,4 C 11,3 C 14,6 km/h (3 Bft) 97,63 %
20.04.2016 13:00 14,0 C 45 % 1027,2 hPa 0,0 l/m 10,3 km/h (2 Bft) W-SW 0,92 h 0,406 mm 4,3 UV-I 793 W/m 2,4 C 12,0 C 16,1 km/h (3 Bft) 99,36 %
20.04.2016 14:00 14,7 C 44 % 1026,9 hPa 0,0 l/m 7,2 km/h (2 Bft) W 1,00 h 0,457 mm 3,9 UV-I 798 W/m 2,4 C 13,8 C 12,7 km/h (3 Bft) 98,16 %
20.04.2016 15:00 15,2 C 43 % 1026,5 hPa 0,0 l/m 6,9 km/h (2 Bft) W-NW 1,00 h 0,458 mm 2,9 UV-I 667 W/m 2,6 C 14,4 C 11,6 km/h (2 Bft) 99,61 %
20.04.2016 16:00 15,6 C 42 % 1026,2 hPa 0,0 l/m 5,8 km/h (2 Bft) W-NW 1,00 h 0,381 mm 1,8 UV-I 525 W/m 2,9 C 15,3 C 10,8 km/h (2 Bft) 97,96 %
20.04.2016 17:00 15,5 C 41 % 1026,0 hPa 0,0 l/m 6,1 km/h (2 Bft) W 1,00 h 0,330 mm 0,9 UV-I 365 W/m 2,4 C 15,2 C 10,7 km/h (2 Bft) 99,18 %
20.04.2016 18:00 15,2 C 42 % 1025,8 hPa 0,0 l/m 3,1 km/h (1 Bft) W-NW 1,00 h 0,254 mm 0,5 UV-I 186 W/m 2,5 C 15,2 C 5,7 km/h (1 Bft) 97,80 %
20.04.2016 19:00 14,2 C 43 % 1025,6 hPa 0,0 l/m 1,6 km/h (1 Bft) W-NW 0,18 h 0,127 mm 0,0 UV-I 37 W/m 1,9 C 14,2 C 3,4 km/h (1 Bft) 99,53 %
20.04.2016 20:00 11,4 C 56 % 1025,8 hPa 0,0 l/m 0,8 km/h (0 Bft) W 0,00 h 0,051 mm 0,0 UV-I 5 W/m 2,9 C 11,4 C 2,0 km/h (1 Bft) 97,59 %
20.04.2016 21:00 8,1 C 68 % 1026,2 hPa 0,0 l/m 1,2 km/h (1 Bft) S-SW 0,00 h 0,025 mm 0,0 UV-I 0 W/m 2,5 C 8,1 C 2,1 km/h (1 Bft) 99,51 %
20.04.2016 22:00 6,6 C 72 % 1026,3 hPa 0,0 l/m 2,0 km/h (1 Bft) S 0,00 h 0,000 mm 0,0 UV-I 0 W/m 2,0 C 6,6 C 3,0 km/h (1 Bft) 98,12 %
20.04.2016 23:00 5,6 C 78 % 1026,5 hPa 0,0 l/m 0,6 km/h (0 Bft) S 0,00 h 0,000 mm 0,0 UV-I 0 W/m 2,0 C 5,6 C 1,5 km/h (1 Bft) 99,38 %
21.04.2016 00:00 4,8 C 82 % 1026,6 hPa 0,0 l/m 1,1 km/h (1 Bft) S 0,00 h 0,000 mm 0,0 UV-I 0 W/m 1,9 C 4,8 C 2,0 km/h (1 Bft) 97,48 %
21.04.2016 01:00 3,9 C 85 % 1026,2 hPa 0,0 l/m 1,2 km/h (1 Bft) S 0,00 h 0,000 mm 0,0 UV-I 0 W/m 1,7 C 3,9 C 1,9 km/h (1 Bft) 99,12 %
21.04.2016 02:00 3,2 C 87 % 1025,8 hPa 0,0 l/m 1,2 km/h (1 Bft) S 0,00 h 0,000 mm 0,0 UV-I 0 W/m 1,3 C 3,2 C 2,0 km/h (1 Bft) 98,35 %
21.04.2016 03:00 3,1 C 89 % 1025,4 hPa 0,0 l/m 4,1 km/h (1 Bft) NO 0,00 h 0,000 mm 0,0 UV-I 0 W/m 1,5 C 3,1 C 5,3 km/h (1 Bft) 98,50 %
21.04.2016 04:00 3,2 C 88 % 1025,2 hPa 0,0 l/m 3,7 km/h (1 Bft) O-NO 0,00 h 0,000 mm 0,0 UV-I 0 W/m 1,5 C 3,2 C 5,1 km/h (1 Bft) 98,95 %
21.04.2016 05:00 2,8 C 89 % 1024,6 hPa 0,0 l/m 5,8 km/h (2 Bft) NO 0,00 h 0,000 mm 0,0 UV-I 0 W/m 1,1 C 2,2 C 8,0 km/h (2 Bft) 98,30 %
21.04.2016 06:00 2,7 C 88 % 1024,4 hPa 0,0 l/m 6,4 km/h (2 Bft) O-NO 0,03 h 0,000 mm 0,0 UV-I 18 W/m 0,9 C 2,3 C 8,8 km/h (2 Bft) 98,67 %
21.04.2016 07:00 4,5 C 83 % 1024,5 hPa 0,0 l/m 11,1 km/h (2 Bft) O-NO 0,92 h 0,025 mm 0,2 UV-I 153 W/m 1,8 C 0,9 C 15,6 km/h (3 Bft) 98,14 %
21.04.2016 08:00 6,9 C 74 % 1024,4 hPa 0,0 l/m 16,0 km/h (3 Bft) O-NO 0,90 h 0,077 mm 0,8 UV-I 282 W/m 2,7 C 1,0 C 21,2 km/h (4 Bft) 99,13 %
21.04.2016 09:00 8,9 C 67 % 1024,2 hPa 0,0 l/m 18,2 km/h (3 Bft) O-NO 1,00 h 0,152 mm 1,6 UV-I 505 W/m 3,1 C 2,6 C 24,3 km/h (4 Bft) 98,59 %
21.04.2016 10:00 10,9 C 62 % 1024,2 hPa 0,0 l/m 16,3 km/h (3 Bft) NO 1,00 h 0,279 mm 2,7 UV-I 648 W/m 3,8 C 5,7 C 22,0 km/h (4 Bft) 98,43 %
21.04.2016 11:00 12,6 C 57 % 1024,1 hPa 0,0 l/m 15,3 km/h (3 Bft) NO 1,00 h 0,381 mm 3,7 UV-I 751 W/m 4,4 C 8,3 C 20,5 km/h (4 Bft) 98,71 %
21.04.2016 12:00 14,3 C 53 % 1023,5 hPa 0,0 l/m 15,5 km/h (3 Bft) NO 1,00 h 0,432 mm 4,3 UV-I 812 W/m 4,9 C 10,3 C 21,1 km/h (4 Bft) 97,96 %
21.04.2016 13:00 15,9 C 50 % 1022,7 hPa 0,0 l/m 13,5 km/h (3 Bft) O-NO 1,00 h 0,508 mm 4,5 UV-I 821 W/m 5,4 C 12,8 C 18,6 km/h (3 Bft) 99,23 %
21.04.2016 14:00 17,1 C 43 % 1021,7 hPa 0,0 l/m 13,2 km/h (3 Bft) NO 1,00 h 0,508 mm 4,0 UV-I 779 W/m 4,6 C 14,4 C 18,5 km/h (3 Bft) 97,88 %
21.04.2016 15:00 17,8 C 39 % 1021,0 hPa 0,0 l/m 11,3 km/h (2 Bft) NO 1,00 h 0,508 mm 3,1 UV-I 690 W/m 3,4 C 15,8 C 16,2 km/h (3 Bft) 99,28 %
21.04.2016 16:00 18,2 C 35 % 1020,2 hPa 0,0 l/m 10,8 km/h (2 Bft) NO 1,00 h 0,457 mm 1,9 UV-I 555 W/m 2,5 C 16,4 C 15,6 km/h (3 Bft) 98,26 %
21.04.2016 17:00 18,2 C 36 % 1019,4 hPa 0,0 l/m 10,0 km/h (2 Bft) O-NO 1,00 h 0,407 mm 1,0 UV-I 373 W/m 2,8 C 16,6 C 13,9 km/h (3 Bft) 98,89 %
21.04.2016 18:00 17,4 C 40 % 1018,5 hPa 0,0 l/m 9,8 km/h (2 Bft) O-NO 1,00 h 0,305 mm 0,5 UV-I 199 W/m 3,5 C 15,9 C 13,8 km/h (3 Bft) 98,73 %
21.04.2016 19:00 15,4 C 46 % 1017,8 hPa 0,0 l/m 8,1 km/h (2 Bft) O-NO 0,12 h 0,203 mm 0,0 UV-I 36 W/m 4,0 C 14,4 C 11,6 km/h (2 Bft) 98,58 %
21.04.2016 20:00 13,0 C 56 % 1017,5 hPa 0,0 l/m 6,1 km/h (2 Bft) O-NO 0,00 h 0,076 mm 0,0 UV-I 5 W/m 4,4 C 12,7 C 8,5 km/h (2 Bft) 97,83 %
21.04.2016 21:00 11,5 C 64 % 1017,4 hPa 0,0 l/m 5,6 km/h (1 Bft) O-NO 0,00 h 0,051 mm 0,0 UV-I 0 W/m 4,9 C 11,1 C 8,2 km/h (2 Bft) 98,98 %
21.04.2016 22:00 10,3 C 68 % 1017,1 hPa 0,0 l/m 3,6 km/h (1 Bft) O-NO 0,00 h 0,025 mm 0,0 UV-I 0 W/m 4,7 C 10,3 C 5,2 km/h (1 Bft) 98,19 %
21.04.2016 23:00 9,8 C 69 % 1016,9 hPa 0,0 l/m 2,5 km/h (1 Bft) O-NO 0,00 h 0,026 mm 0,0 UV-I 0 W/m 4,4 C 9,8 C 3,4 km/h (1 Bft) 98,98 %
22.04.2016 00:00 7,1 C 80 % 1016,7 hPa 0,0 l/m 2,3 km/h (1 Bft) O-SO 0,00 h 0,000 mm 0,0 UV-I 0 W/m 3,9 C 7,1 C 3,1 km/h (1 Bft) 98,02 %
22.04.2016 01:00 6,0 C 84 % 1016,4 hPa 0,0 l/m 2,9 km/h (1 Bft) SO 0,00 h 0,000 mm 0,0 UV-I 0 W/m 3,5 C 6,0 C 3,9 km/h (1 Bft) 99,08 %
22.04.2016 02:00 5,4 C 87 % 1016,2 hPa 0,0 l/m 3,8 km/h (1 Bft) S 0,00 h 0,000 mm 0,0 UV-I 0 W/m 3,4 C 5,4 C 5,1 km/h (1 Bft) 97,93 %
22.04.2016 03:00 5,1 C 88 % 1016,1 hPa 0,0 l/m 3,6 km/h (1 Bft) S 0,00 h 0,000 mm 0,0 UV-I 0 W/m 3,2 C 5,1 C 4,7 km/h (1 Bft) 99,38 %
22.04.2016 04:00 5,0 C 88 % 1015,9 hPa 0,0 l/m 3,9 km/h (1 Bft) S 0,00 h 0,000 mm 0,0 UV-I 0 W/m 3,2 C 5,0 C 4,9 km/h (1 Bft) 97,80 %
22.04.2016 05:00 4,7 C 90 % 1015,9 hPa 0,0 l/m 3,1 km/h (1 Bft) S 0,00 h 0,000 mm 0,0 UV-I 5 W/m 3,2 C 4,7 C 4,1 km/h (1 Bft) 99,34 %
22.04.2016 06:00 4,8 C 90 % 1016,0 hPa 0,0 l/m 3,7 km/h (1 Bft) S 0,07 h 0,000 mm 0,0 UV-I 25 W/m 3,4 C 4,8 C 5,2 km/h (1 Bft) 97,36 %
22.04.2016 07:00 6,6 C 88 % 1016,1 hPa 0,0 l/m 4,8 km/h (1 Bft) SW 0,93 h 0,025 mm 0,4 UV-I 163 W/m 4,8 C 6,6 C 6,6 km/h (2 Bft) 99,42 %
22.04.2016 08:00 8,8 C 82 % 1016,1 hPa 0,0 l/m 5,3 km/h (1 Bft) SW 1,00 h 0,077 mm 0,8 UV-I 286 W/m 5,9 C 8,4 C 7,8 km/h (2 Bft) 97,66 %
22.04.2016 09:00 11,8 C 70 % 1016,0 hPa 0,0 l/m 2,2 km/h (1 Bft) N-NW 1,00 h 0,127 mm 1,8 UV-I 481 W/m 6,5 C 11,8 C 4,0 km/h (1 Bft) 99,09 %
22.04.2016 10:00 14,1 C 61 % 1015,6 hPa 0,0 l/m 5,3 km/h (1 Bft) W 1,00 h 0,228 mm 2,9 UV-I 619 W/m 6,7 C 13,8 C 8,8 km/h (2 Bft) 97,96 %
22.04.2016 11:00 16,1 C 54 % 1015,3 hPa 0,0 l/m 6,1 km/h (2 Bft) W-SW 1,00 h 0,330 mm 3,8 UV-I 710 W/m 6,8 C 15,7 C 9,9 km/h (2 Bft) 99,12 %
22.04.2016 12:00 17,8 C 46 % 1014,7 hPa 0,0 l/m 5,6 km/h (1 Bft) W 1,00 h 0,407 mm 4,2 UV-I 683 W/m 6,1 C 17,4 C 10,2 km/h (2 Bft) 98,35 %
22.04.2016 13:00 18,6 C 40 % 1014,2 hPa 0,0 l/m 5,8 km/h (2 Bft) W-NW 1,00 h 0,432 mm 4,6 UV-I 796 W/m 4,7 C 18,4 C 11,2 km/h (2 Bft) 99,44 %
22.04.2016 14:00 19,0 C 39 % 1013,4 hPa 0,0 l/m 5,6 km/h (1 Bft) W-NW 1,00 h 0,508 mm 3,9 UV-I 751 W/m 4,6 C 18,8 C 10,3 km/h (2 Bft) 97,98 %
22.04.2016 15:00 19,2 C 37 % 1012,5 hPa 0,0 l/m 5,5 km/h (1 Bft) W-NW 1,00 h 0,482 mm 3,1 UV-I 659 W/m 4,1 C 19,0 C 10,0 km/h (2 Bft) 99,06 %
22.04.2016 16:00 19,4 C 36 % 1011,6 hPa 0,0 l/m 4,2 km/h (1 Bft) W-NW 1,00 h 0,432 mm 1,9 UV-I 531 W/m 3,9 C 19,3 C 7,5 km/h (2 Bft) 97,92 %
22.04.2016 17:00 19,2 C 34 % 1010,9 hPa 0,0 l/m 4,6 km/h (1 Bft) W 0,87 h 0,356 mm 0,9 UV-I 338 W/m 3,0 C 19,1 C 7,9 km/h (2 Bft) 99,73 %
22.04.2016 18:00 18,4 C 38 % 1010,6 hPa 0,0 l/m 1,6 km/h (1 Bft) W 0,65 h 0,228 mm 0,5 UV-I 172 W/m 3,7 C 18,4 C 3,4 km/h (1 Bft) 97,75 %
22.04.2016 19:00 16,3 C 49 % 1010,3 hPa 0,0 l/m 0,3 km/h (0 Bft) N-NW 0,00 h 0,127 mm 0,0 UV-I 27 W/m 5,5 C 16,3 C 1,2 km/h (1 Bft) 99,32 %
22.04.2016 20:00 14,4 C 59 % 1010,2 hPa 0,0 l/m 0,6 km/h (0 Bft) N-NW 0,00 h 0,026 mm 0,0 UV-I 0 W/m 6,5 C 14,4 C 1,6 km/h (1 Bft) 98,10 %
22.04.2016 21:00 13,4 C 60 % 1010,5 hPa 0,0 l/m 2,6 km/h (1 Bft) NO 0,00 h 0,000 mm 0,0 UV-I 0 W/m 5,8 C 13,4 C 3,9 km/h (1 Bft) 99,08 %
22.04.2016 22:00 12,0 C 65 % 1010,4 hPa 0,0 l/m 2,5 km/h (1 Bft) O-NO 0,00 h 0,025 mm 0,0 UV-I 0 W/m 5,6 C 12,0 C 3,4 km/h (1 Bft) 97,67 %
22.04.2016 23:00 10,9 C 70 % 1010,4 hPa 0,0 l/m 2,2 km/h (1 Bft) O-NO 0,00 h 0,025 mm 0,0 UV-I 0 W/m 5,7 C 10,9 C 3,1 km/h (1 Bft) 98,61 %
23.04.2016 00:00 10,6 C 70 % 1010,0 hPa 0,0 l/m 4,3 km/h (1 Bft) NO 0,00 h 0,000 mm 0,0 UV-I 0 W/m 5,4 C 10,6 C 6,2 km/h (2 Bft) 98,51 %
23.04.2016 01:00 10,0 C 73 % 1009,4 hPa 0,0 l/m 6,3 km/h (2 Bft) NO 0,00 h 0,025 mm 0,0 UV-I 0 W/m 5,3 C 9,7 C 8,7 km/h (2 Bft) 98,48 %
23.04.2016 02:00 9,4 C 73 % 1008,8 hPa 0,0 l/m 6,0 km/h (2 Bft) NO 0,00 h 0,026 mm 0,0 UV-I 0 W/m 4,9 C 9,2 C 8,3 km/h (2 Bft) 98,97 %
23.04.2016 03:00 8,8 C 74 % 1008,2 hPa 0,0 l/m 4,4 km/h (1 Bft) NO 0,00 h 0,025 mm 0,0 UV-I 0 W/m 4,3 C 8,8 C 6,0 km/h (2 Bft) 98,35 %
23.04.2016 04:00 8,4 C 73 % 1007,5 hPa 0,0 l/m 4,1 km/h (1 Bft) O-NO 0,00 h 0,026 mm 0,0 UV-I 0 W/m 3,8 C 8,4 C 5,9 km/h (2 Bft) 98,86 %
23.04.2016 05:00 8,0 C 74 % 1007,0 hPa 0,0 l/m 1,9 km/h (1 Bft) O-NO 0,00 h 0,025 mm 0,0 UV-I 0 W/m 3,6 C 8,0 C 3,0 km/h (1 Bft) 98,29 %
23.04.2016 06:00 7,5 C 80 % 1006,7 hPa 0,0 l/m 0,3 km/h (0 Bft) O-NO 0,00 h 0,000 mm 0,0 UV-I 27 W/m 4,3 C 7,5 C 0,7 km/h (0 Bft) 99,25 %
23.04.2016 07:00 8,4 C 77 % 1006,5 hPa 0,0 l/m 2,4 km/h (1 Bft) O-NO 0,00 h 0,025 mm 0,0 UV-I 72 W/m 4,6 C 8,4 C 3,7 km/h (1 Bft) 97,99 %
23.04.2016 08:00 9,2 C 73 % 1006,2 hPa 0,0 l/m 3,7 km/h (1 Bft) O-NO 0,00 h 0,051 mm 0,5 UV-I 146 W/m 4,6 C 9,2 C 5,7 km/h (1 Bft) 98,84 %
23.04.2016 09:00 9,8 C 73 % 1005,8 hPa 0,0 l/m 3,0 km/h (1 Bft) NO 0,00 h 0,076 mm 0,8 UV-I 208 W/m 5,2 C 9,8 C 4,5 km/h (1 Bft) 97,79 %
23.04.2016 10:00 10,8 C 73 % 1005,7 hPa 0,0 l/m 4,5 km/h (1 Bft) O-NO 0,10 h 0,102 mm 1,5 UV-I 290 W/m 6,1 C 10,8 C 6,4 km/h (2 Bft) 99,20 %
23.04.2016 11:00 12,5 C 66 % 1005,4 hPa 0,0 l/m 6,5 km/h (2 Bft) O-NO 1,00 h 0,152 mm 2,4 UV-I 471 W/m 6,2 C 11,9 C 9,9 km/h (2 Bft) 97,94 %
23.04.2016 12:00 13,4 C 60 % 1004,9 hPa 0,0 l/m 5,8 km/h (2 Bft) NO 0,78 h 0,254 mm 2,7 UV-I 469 W/m 5,8 C 13,1 C 8,6 km/h (2 Bft) 98,86 %
23.04.2016 13:00 13,9 C 58 % 1004,3 hPa 0,0 l/m 3,9 km/h (1 Bft) NO 0,00 h 0,254 mm 2,2 UV-I 367 W/m 5,9 C 13,9 C 6,1 km/h (2 Bft) 98,32 %
23.04.2016 14:00 14,6 C 58 % 1003,7 hPa 0,0 l/m 3,3 km/h (1 Bft) N-NO 0,12 h 0,204 mm 2,0 UV-I 373 W/m 6,4 C 14,6 C 5,6 km/h (1 Bft) 98,99 %
23.04.2016 15:00 15,3 C 56 % 1002,9 hPa 0,0 l/m 3,1 km/h (1 Bft) NO 0,80 h 0,203 mm 2,0 UV-I 408 W/m 6,4 C 15,3 C 5,3 km/h (1 Bft) 97,97 %
23.04.2016 16:00 15,5 C 54 % 1002,4 hPa 0,0 l/m 2,9 km/h (1 Bft) O-NO 0,20 h 0,228 mm 1,1 UV-I 272 W/m 6,3 C 15,5 C 4,6 km/h (1 Bft) 98,51 %
23.04.2016 17:00 14,7 C 61 % 1002,0 hPa 0,0 l/m 2,4 km/h (1 Bft) NW 0,00 h 0,153 mm 0,5 UV-I 119 W/m 7,2 C 14,7 C 4,7 km/h (1 Bft) 97,14 %
23.04.2016 18:00 13,9 C 66 % 1001,8 hPa 0,0 l/m 1,0 km/h (0 Bft) NW 0,00 h 0,076 mm 0,0 UV-I 47 W/m 7,6 C 13,9 C 2,8 km/h (1 Bft) 99,23 %
23.04.2016 19:00 13,2 C 70 % 1001,6 hPa 0,0 l/m 0,2 km/h (0 Bft) NW 0,00 h 0,025 mm 0,0 UV-I 24 W/m 7,9 C 13,2 C 0,7 km/h (0 Bft) 98,37 %
23.04.2016 20:00 12,3 C 78 % 1001,6 hPa 0,0 l/m 0,5 km/h (0 Bft) NW 0,00 h 0,026 mm 0,0 UV-I 0 W/m 8,5 C 12,3 C 1,3 km/h (1 Bft) 99,39 %
23.04.2016 21:00 11,9 C 79 % 1001,7 hPa 0,0 l/m 3,0 km/h (1 Bft) O-SO 0,00 h 0,000 mm 0,0 UV-I 0 W/m 8,3 C 11,9 C 4,6 km/h (1 Bft) 97,86 %
23.04.2016 22:00 10,6 C 84 % 1002,2 hPa 0,6 l/m 9,9 km/h (2 Bft) W-SW 0,00 h 0,000 mm 0,0 UV-I 0 W/m 8,0 C 8,1 C 14,9 km/h (3 Bft) 99,56 %
23.04.2016 23:00 8,3 C 93 % 1003,8 hPa 3,8 l/m 15,3 km/h (3 Bft) W 0,00 h 0,025 mm 0,0 UV-I 0 W/m 7,2 C 3,1 C 22,6 km/h (4 Bft) 97,37 %
24.04.2016 00:00 6,4 C 91 % 1006,0 hPa 4,6 l/m 23,8 km/h (4 Bft) W 0,00 h 0,000 mm 0,0 UV-I 0 W/m 5,1 C -2,6 C 34,4 km/h (5 Bft) 99,10 %
24.04.2016 01:00 4,2 C 92 % 1007,8 hPa 2,2 l/m 21,1 km/h (4 Bft) W-SW 0,00 h 0,025 mm 0,0 UV-I 0 W/m 3,0 C -4,4 C 31,0 km/h (5 Bft) 97,60 %
24.04.2016 02:00 3,5 C 93 % 1008,8 hPa 1,0 l/m 13,6 km/h (3 Bft) W-SW 0,00 h 0,026 mm 0,0 UV-I 0 W/m 2,5 C -1,7 C 20,0 km/h (4 Bft) 99,22 %
24.04.2016 03:00 3,6 C 94 % 1009,3 hPa 0,0 l/m 8,0 km/h (2 Bft) W 0,00 h 0,000 mm 0,0 UV-I 0 W/m 2,7 C 2,1 C 15,2 km/h (3 Bft) 99,39 %
24.04.2016 04:00 3,0 C 92 % 1009,6 hPa 0,2 l/m 6,2 km/h (2 Bft) W-SW 0,00 h 0,000 mm 0,0 UV-I 0 W/m 1,8 C 2,3 C 13,6 km/h (3 Bft) 98,90 %
24.04.2016 05:00 3,4 C 93 % 1009,5 hPa 0,2 l/m 12,0 km/h (2 Bft) W-SW 0,00 h 0,000 mm 0,0 UV-I 0 W/m 2,3 C -1,0 C 21,2 km/h (4 Bft) 99,27 %
24.04.2016 06:00 3,3 C 91 % 1009,8 hPa 0,0 l/m 11,6 km/h (2 Bft) W 0,00 h 0,000 mm 0,0 UV-I 14 W/m 2,0 C -0,8 C 21,6 km/h (4 Bft) 98,61 %
24.04.2016 07:00 3,5 C 90 % 1010,2 hPa 0,0 l/m 9,3 km/h (2 Bft) W-SW 0,00 h 0,025 mm 0,0 UV-I 87 W/m 2,0 C 1,1 C 17,4 km/h (3 Bft) 99,49 %
24.04.2016 08:00 4,3 C 87 % 1010,3 hPa 0,0 l/m 9,9 km/h (2 Bft) W-SW 0,58 h 0,051 mm 0,6 UV-I 226 W/m 2,3 C 1,6 C 18,5 km/h (3 Bft) 98,47 %
24.04.2016 09:00 4,7 C 81 % 1010,3 hPa 0,0 l/m 11,1 km/h (2 Bft) W-SW 0,10 h 0,102 mm 1,2 UV-I 284 W/m 1,7 C 1,1 C 16,9 km/h (3 Bft) 97,61 %
24.04.2016 10:00 5,5 C 76 % 1010,4 hPa 0,0 l/m 9,4 km/h (2 Bft) W-SW 0,53 h 0,127 mm 1,8 UV-I 431 W/m 1,6 C 2,9 C 15,3 km/h (3 Bft) 99,15 %
24.04.2016 11:00 5,5 C 71 % 1010,3 hPa 0,0 l/m 6,8 km/h (2 Bft) W 0,15 h 0,177 mm 1,4 UV-I 218 W/m 0,5 C 4,3 C 12,9 km/h (3 Bft) 97,78 %
24.04.2016 12:00 6,0 C 67 % 1010,1 hPa 0,0 l/m 9,9 km/h (2 Bft) W-SW 0,12 h 0,102 mm 1,7 UV-I 296 W/m 0,2 C 3,3 C 16,1 km/h (3 Bft) 99,28 %
24.04.2016 13:00 6,7 C 63 % 1009,7 hPa 0,0 l/m 10,5 km/h (2 Bft) W 0,27 h 0,152 mm 2,3 UV-I 424 W/m 0,0 C 3,8 C 17,6 km/h (3 Bft) 97,66 %
24.04.2016 14:00 6,9 C 59 % 1009,4 hPa 0,0 l/m 12,2 km/h (2 Bft) W-SW 0,25 h 0,204 mm 2,0 UV-I 391 W/m -0,7 C 3,0 C 18,0 km/h (3 Bft) 99,06 %
24.04.2016 15:00 6,5 C 63 % 1009,2 hPa 0,0 l/m 13,7 km/h (3 Bft) W-SW 0,15 h 0,203 mm 1,3 UV-I 302 W/m -0,0 C 1,7 C 19,6 km/h (3 Bft) 97,70 %
24.04.2016 16:00 6,8 C 65 % 1008,9 hPa 0,0 l/m 12,4 km/h (3 Bft) W-SW 0,73 h 0,178 mm 1,2 UV-I 339 W/m 0,7 C 2,7 C 18,3 km/h (3 Bft) 99,22 %
24.04.2016 17:00 6,1 C 74 % 1008,8 hPa 0,0 l/m 14,8 km/h (3 Bft) S-SW 0,33 h 0,177 mm 0,6 UV-I 225 W/m 1,8 C 0,7 C 22,1 km/h (4 Bft) 97,86 %
24.04.2016 18:00 5,4 C 76 % 1008,9 hPa 0,0 l/m 15,3 km/h (3 Bft) SW 0,62 h 0,127 mm 0,0 UV-I 141 W/m 1,4 C -0,5 C 22,8 km/h (4 Bft) 98,69 %
24.04.2016 19:00 4,9 C 78 % 1009,0 hPa 0,0 l/m 15,5 km/h (3 Bft) SW 0,23 h 0,102 mm 0,0 UV-I 45 W/m 1,4 C -1,3 C 22,3 km/h (4 Bft) 97,46 %
24.04.2016 20:00 3,4 C 84 % 1009,5 hPa 0,0 l/m 16,1 km/h (3 Bft) SW 0,00 h 0,051 mm 0,0 UV-I 5 W/m 1,0 C -3,4 C 22,2 km/h (4 Bft) 99,20 %
24.04.2016 21:00 3,1 C 86 % 1010,3 hPa 0,0 l/m 14,9 km/h (3 Bft) SW 0,00 h 0,025 mm 0,0 UV-I 0 W/m 1,0 C -3,1 C 20,9 km/h (4 Bft) 97,63 %
24.04.2016 22:00 2,8 C 87 % 1010,4 hPa 0,0 l/m 12,9 km/h (3 Bft) W-SW 0,00 h 0,026 mm 0,0 UV-I 0 W/m 0,8 C -2,3 C 18,3 km/h (3 Bft) 98,83 %
24.04.2016 23:00 2,2 C 91 % 1010,4 hPa 0,0 l/m 9,9 km/h (2 Bft) W-SW 0,00 h 0,025 mm 0,0 UV-I 0 W/m 0,9 C -0,8 C 14,1 km/h (3 Bft) 97,87 %
Min-Datum _ 24.04.16 21.04.16 23.04.16 - 18.04.16 - - - - - 24.04.16 24.04.16 18.04.16 23.04.16
_ Min-Zeit 23:08 16:00 20:22 - 10:26 - - - - - 14:16 01:22 10:26 04:01
Minimum _ 2,1 C 29 % 1001,5 hPa - 0,0 km/h (0 Bft) - - - - - -1,7 C -7,3 C 0,0 km/h (0 Bft) 66,67 %
Max-Datum _ 22.04.16 18.04.16 20.04.16 24.04.16 24.04.16 - 22.04.16 21.04.16 22.04.16 22.04.16 23.04.16 22.04.16 24.04.16 18.04.16
_ Max-Zeit 14:03 23:10 11:03 00:02 00:25 - 11:30 13:01 12:25 13:52 20:08 16:44 00:47 00:00
Maximum _ 19,8 C 97 % 1027,5 hPa 4,6 l/m 31,9 km/h
W (5 Bft)
- 0,08 h 0,508 mm 5,5 UV-I 1096 W/m 9,2 C 19,7 C 48,3 km/h
W (6 Bft)
100,00 %
Durchschnitt _ 9,7 C 73 % 1016,6 hPa #18,8 l/m 6,5 km/h (2 Bft) W-SW #43:48 h #19,177 mm 1,9 UV-I 309 W/m 4,5 C 8,5 C 9,9 km/h (2 Bft) 98,58 %